createdAt,value
2022-08-03T00:01:32.950Z,24.02
2022-08-03T00:04:00.493Z,24.04
2022-08-03T00:06:27.674Z,24.08
2022-08-03T00:08:54.767Z,24.14
2022-08-03T00:11:22.014Z,24.18
2022-08-03T00:13:49.868Z,24.21
2022-08-03T00:16:18.239Z,24.23
2022-08-03T00:18:45.520Z,24.17
2022-08-03T00:21:13.785Z,24.08
2022-08-03T00:23:51.139Z,24.02
2022-08-03T00:26:19.255Z,24.08
2022-08-03T00:28:46.339Z,24.06
2022-08-03T00:31:13.879Z,24.02
2022-08-03T00:33:58.083Z,23.99
2022-08-03T00:36:27.432Z,23.88
2022-08-03T00:38:54.801Z,23.92
2022-08-03T00:41:22.119Z,23.99
2022-08-03T00:43:49.357Z,23.90
2022-08-03T00:46:20.775Z,23.78
2022-08-03T00:48:52.896Z,23.76
2022-08-03T00:51:22.040Z,23.76
2022-08-03T00:53:50.262Z,23.72
2022-08-03T00:56:17.822Z,23.56
2022-08-03T00:58:46.334Z,23.61
2022-08-03T01:01:14.120Z,23.65
2022-08-03T01:03:41.582Z,23.58
2022-08-03T01:06:20.558Z,23.46
2022-08-03T01:09:21.080Z,23.27
2022-08-03T01:12:01.971Z,23.25
2022-08-03T01:14:46.884Z,23.30
2022-08-03T01:17:20.695Z,23.36
2022-08-03T01:19:54.929Z,23.30
2022-08-03T01:22:33.910Z,23.33
2022-08-03T01:25:25.315Z,23.39
2022-08-03T01:28:13.809Z,23.41
2022-08-03T01:30:46.291Z,23.38
2022-08-03T01:33:19.147Z,23.39
2022-08-03T01:35:51.512Z,23.41
2022-08-03T01:38:28.197Z,23.50
2022-08-03T01:40:57.246Z,23.52
2022-08-03T01:44:27.652Z,23.48
2022-08-03T01:46:20.397Z,23.40
2022-08-03T01:48:49.329Z,23.39
2022-08-03T01:51:20.088Z,23.38
2022-08-03T01:53:50.421Z,23.39
2022-08-03T01:56:20.675Z,23.45
2022-08-03T01:58:50.146Z,23.54
2022-08-03T02:01:18.357Z,23.62
2022-08-03T02:04:00.212Z,23.71
2022-08-03T02:07:01.728Z,23.74
2022-08-03T02:09:21.551Z,23.77
2022-08-03T02:11:50.018Z,23.76
2022-08-03T02:14:18.809Z,23.78
2022-08-03T02:16:46.598Z,23.74
2022-08-03T02:19:15.066Z,23.71
2022-08-03T02:21:56.272Z,23.70
2022-08-03T02:24:29.047Z,23.73
2022-08-03T02:26:57.775Z,23.78
2022-08-03T02:29:39.824Z,23.80
2022-08-03T02:32:12.860Z,23.79
2022-08-03T02:34:42.733Z,23.74
2022-08-03T02:37:12.052Z,23.70
2022-08-03T02:39:42.288Z,23.66
2022-08-03T02:42:12.824Z,23.67
2022-08-03T02:44:41.899Z,23.66
2022-08-03T02:47:12.166Z,23.65
2022-08-03T02:49:50.419Z,23.66
2022-08-03T02:52:21.296Z,23.69
2022-08-03T02:54:51.471Z,23.75
2022-08-03T02:57:21.847Z,23.81
2022-08-03T02:59:50.097Z,23.82
2022-08-03T03:02:18.639Z,23.85
2022-08-03T03:05:51.113Z,23.83
2022-08-03T03:07:45.417Z,23.82
2022-08-03T03:10:21.438Z,23.82
2022-08-03T03:12:51.491Z,23.83
2022-08-03T03:15:19.306Z,23.82
2022-08-03T03:17:48.541Z,23.83
2022-08-03T03:20:28.922Z,23.86
2022-08-03T03:22:59.383Z,23.86
2022-08-03T03:25:27.052Z,23.82
2022-08-03T03:27:54.390Z,23.86
2022-08-03T03:30:21.973Z,23.88
2022-08-03T03:32:50.185Z,23.85
2022-08-03T03:35:19.433Z,23.85
2022-08-03T03:37:46.839Z,23.85
2022-08-03T03:40:15.066Z,23.87
2022-08-03T03:42:42.420Z,23.90
2022-08-03T03:45:10.219Z,23.93
2022-08-03T03:47:38.202Z,23.95
2022-08-03T03:50:06.993Z,23.97
2022-08-03T03:52:34.692Z,23.99
2022-08-03T03:55:02.016Z,24.00
2022-08-03T03:57:29.885Z,24.01
2022-08-03T03:59:57.410Z,24.04
2022-08-03T04:02:24.908Z,24.06
2022-08-03T04:05:10.379Z,24.04
2022-08-03T04:08:08.989Z,24.00
2022-08-03T04:10:56.524Z,23.99
2022-08-03T04:13:23.988Z,23.97
2022-08-03T04:15:52.147Z,23.90
2022-08-03T04:18:20.415Z,23.82
2022-08-03T04:20:50.526Z,23.82
2022-08-03T04:23:20.185Z,23.80
2022-08-03T04:25:52.090Z,23.82
2022-08-03T04:28:30.519Z,23.83
2022-08-03T04:31:01.580Z,23.82
2022-08-03T04:33:32.465Z,23.83
2022-08-03T04:36:03.730Z,23.81
2022-08-03T04:38:37.095Z,23.82
2022-08-03T04:41:04.920Z,23.74
2022-08-03T04:43:34.555Z,23.74
2022-08-03T04:46:02.483Z,23.77
2022-08-03T04:48:30.045Z,23.80
2022-08-03T04:50:57.670Z,23.80
2022-08-03T04:53:24.900Z,23.80
2022-08-03T04:55:52.032Z,23.83
2022-08-03T04:58:19.108Z,23.83
2022-08-03T05:00:51.376Z,23.82
2022-08-03T05:03:23.920Z,23.83
2022-08-03T05:06:00.559Z,23.84
2022-08-03T05:08:46.318Z,23.85
2022-08-03T05:11:16.023Z,23.82
2022-08-03T05:13:45.242Z,23.82
2022-08-03T05:16:14.255Z,23.79
2022-08-03T05:18:42.659Z,23.80
2022-08-03T05:21:11.112Z,23.77
2022-08-03T05:23:38.339Z,23.80
2022-08-03T05:26:05.653Z,23.82
2022-08-03T05:28:32.823Z,23.82
2022-08-03T05:30:59.937Z,23.81
2022-08-03T05:33:27.171Z,23.82
2022-08-03T05:36:01.701Z,23.79
2022-08-03T05:38:34.000Z,23.75
2022-08-03T05:41:22.682Z,23.68
2022-08-03T05:43:48.991Z,23.68
2022-08-03T05:46:16.458Z,23.72
2022-08-03T05:48:43.654Z,23.70
2022-08-03T05:51:13.908Z,23.62
2022-08-03T05:53:42.106Z,23.62
2022-08-03T05:56:15.284Z,23.65
2022-08-03T05:58:47.960Z,23.62
2022-08-03T06:01:16.969Z,23.64
2022-08-03T06:03:45.334Z,23.63
2022-08-03T06:06:12.457Z,23.61
2022-08-03T06:08:40.489Z,23.61
2022-08-03T06:11:08.379Z,23.61
2022-08-03T06:13:36.493Z,23.61
2022-08-03T06:16:04.109Z,23.61
2022-08-03T06:18:31.672Z,23.64
2022-08-03T06:20:58.865Z,23.57
2022-08-03T06:23:53.485Z,23.52
2022-08-03T06:26:26.946Z,23.54
2022-08-03T06:28:55.380Z,23.54
2022-08-03T06:31:26.331Z,23.51
2022-08-03T06:34:32.699Z,23.53
2022-08-03T06:36:50.475Z,23.50
2022-08-03T06:39:18.852Z,23.52
2022-08-03T06:41:46.054Z,23.52
2022-08-03T06:44:13.534Z,23.54
2022-08-03T06:46:40.945Z,23.50
2022-08-03T06:49:08.439Z,23.35
2022-08-03T06:52:03.051Z,23.36
2022-08-03T06:54:22.891Z,23.45
2022-08-03T06:56:50.049Z,23.47
2022-08-03T07:00:09.251Z,23.49
2022-08-03T07:02:04.535Z,23.54
2022-08-03T07:04:31.812Z,23.57
2022-08-03T07:06:58.974Z,23.57
2022-08-03T07:09:27.072Z,23.63
2022-08-03T07:11:55.474Z,23.58
2022-08-03T07:14:22.600Z,23.63
2022-08-03T07:16:49.831Z,23.57
2022-08-03T07:19:17.109Z,23.51
2022-08-03T07:21:44.332Z,23.43
2022-08-03T07:24:11.718Z,23.34
2022-08-03T07:26:38.840Z,23.33
2022-08-03T07:29:10.907Z,23.44
2022-08-03T07:31:42.529Z,23.53
2022-08-03T07:34:09.774Z,23.49
2022-08-03T07:36:37.109Z,23.45
2022-08-03T07:39:16.482Z,23.51
2022-08-03T07:41:46.007Z,23.53
2022-08-03T07:44:13.326Z,23.56
2022-08-03T07:46:40.472Z,23.51
2022-08-03T07:49:07.690Z,23.49
2022-08-03T07:51:35.293Z,23.55
2022-08-03T07:54:02.614Z,23.68
2022-08-03T07:56:30.114Z,23.76
2022-08-03T07:58:57.335Z,23.76
2022-08-03T08:01:24.880Z,23.81
2022-08-03T08:03:52.683Z,23.82
2022-08-03T08:06:21.294Z,23.89
2022-08-03T08:08:48.545Z,23.98
2022-08-03T08:11:15.836Z,23.99
2022-08-03T08:13:42.967Z,24.00
2022-08-03T08:16:10.091Z,23.89
2022-08-03T08:18:37.383Z,23.68
2022-08-03T08:21:04.584Z,23.67
2022-08-03T08:23:43.752Z,23.74
2022-08-03T08:26:12.539Z,23.78
2022-08-03T08:28:39.816Z,23.73
2022-08-03T08:31:07.149Z,23.81
2022-08-03T08:34:03.288Z,23.88
2022-08-03T08:36:22.753Z,23.97
2022-08-03T08:38:50.005Z,24.05
2022-08-03T08:41:17.652Z,24.09
2022-08-03T08:43:44.754Z,24.16
2022-08-03T08:46:23.145Z,24.17
2022-08-03T08:48:52.503Z,24.17
2022-08-03T08:51:21.042Z,24.21
2022-08-03T08:53:54.343Z,24.21
2022-08-03T08:56:25.927Z,24.27
2022-08-03T08:58:58.429Z,24.33
2022-08-03T09:01:29.545Z,24.38
2022-08-03T09:03:56.748Z,24.37
2022-08-03T09:06:24.455Z,24.45
2022-08-03T09:08:51.801Z,24.31
2022-08-03T09:11:51.784Z,24.34
2022-08-03T09:14:36.846Z,24.49
2022-08-03T09:17:02.440Z,24.58
2022-08-03T09:19:34.262Z,24.70
2022-08-03T09:22:14.289Z,24.80
2022-08-03T09:25:22.650Z,24.73
2022-08-03T09:27:47.208Z,24.71
2022-08-03T09:30:32.193Z,24.71
2022-08-03T09:33:08.409Z,24.70
2022-08-03T09:35:59.717Z,24.82
2022-08-03T09:38:27.816Z,24.94
2022-08-03T09:40:59.804Z,24.97
2022-08-03T09:43:28.411Z,24.97
2022-08-03T09:46:07.856Z,24.94
2022-08-03T09:48:35.952Z,24.82
2022-08-03T09:51:14.504Z,24.77
2022-08-03T09:53:58.604Z,24.76
2022-08-03T09:56:40.994Z,24.75
2022-08-03T09:59:08.777Z,24.83
2022-08-03T10:01:37.765Z,24.93
2022-08-03T10:04:05.418Z,24.99
2022-08-03T10:06:32.953Z,25.07
2022-08-03T10:09:09.103Z,25.13
2022-08-03T10:11:41.188Z,25.09
2022-08-03T10:14:11.758Z,25.07
2022-08-03T10:16:40.918Z,25.11
2022-08-03T10:19:10.100Z,25.13
2022-08-03T10:21:39.820Z,25.23
2022-08-03T10:24:09.452Z,25.29
2022-08-03T10:26:39.267Z,25.29
2022-08-03T10:29:23.039Z,25.27
2022-08-03T10:31:58.163Z,25.21
2022-08-03T10:34:35.652Z,25.23
2022-08-03T10:37:08.814Z,25.27
2022-08-03T10:39:36.715Z,25.26
2022-08-03T10:42:06.141Z,25.27
2022-08-03T10:44:42.925Z,25.25
2022-08-03T10:47:10.743Z,25.26
2022-08-03T10:49:38.605Z,25.27
2022-08-03T10:52:12.893Z,25.28
2022-08-03T10:55:07.561Z,25.30
2022-08-03T10:58:01.402Z,25.31
2022-08-03T11:00:30.748Z,25.31
2022-08-03T11:03:16.958Z,25.30
2022-08-03T11:05:54.827Z,25.27
2022-08-03T11:08:38.068Z,25.24
2022-08-03T11:11:17.514Z,25.22
2022-08-03T11:14:05.650Z,25.24
2022-08-03T11:16:58.963Z,25.26
2022-08-03T11:19:57.486Z,25.29
2022-08-03T11:22:25.804Z,25.38
2022-08-03T11:24:56.787Z,25.43
2022-08-03T11:27:26.179Z,25.45
2022-08-03T11:30:07.074Z,25.49
2022-08-03T11:32:49.172Z,25.53
2022-08-03T11:35:20.973Z,25.56
2022-08-03T11:38:06.461Z,25.70
2022-08-03T11:40:36.537Z,25.74
2022-08-03T11:43:22.818Z,25.72
2022-08-03T11:46:28.468Z,25.68
2022-08-03T11:49:09.792Z,25.70
2022-08-03T11:51:39.124Z,25.72
2022-08-03T11:54:07.346Z,25.64
2022-08-03T11:56:49.486Z,25.58
2022-08-03T11:59:21.997Z,25.54
2022-08-03T12:01:50.397Z,25.51
2022-08-03T12:04:17.661Z,25.53
2022-08-03T12:07:02.106Z,25.54
2022-08-03T12:09:29.260Z,25.57
2022-08-03T12:12:00.621Z,25.54
2022-08-03T12:14:48.454Z,25.53
2022-08-03T12:17:17.388Z,25.43
2022-08-03T12:19:45.379Z,25.52
2022-08-03T12:22:12.525Z,25.52
2022-08-03T12:24:46.895Z,25.48
2022-08-03T12:27:23.783Z,25.43
2022-08-03T12:29:59.176Z,25.40
2022-08-03T12:32:30.656Z,25.45
2022-08-03T12:35:04.792Z,25.41
2022-08-03T12:37:32.783Z,25.44
2022-08-03T12:40:09.351Z,25.57
2022-08-03T12:42:39.694Z,25.66
2022-08-03T12:45:21.385Z,25.72
2022-08-03T12:47:52.311Z,25.73
2022-08-03T12:50:36.309Z,25.67
2022-08-03T12:53:08.037Z,25.67
2022-08-03T12:55:57.192Z,25.72
2022-08-03T12:58:34.636Z,25.71
2022-08-03T13:01:05.022Z,25.65
2022-08-03T13:03:45.915Z,25.64
2022-08-03T13:06:35.249Z,25.65
2022-08-03T13:09:06.296Z,25.64
2022-08-03T13:11:57.772Z,25.68
2022-08-03T13:14:21.725Z,25.74
2022-08-03T13:16:49.942Z,25.82
2022-08-03T13:19:17.042Z,25.74
2022-08-03T13:21:53.440Z,25.65
2022-08-03T13:24:32.281Z,25.64
2022-08-03T13:27:00.411Z,25.63
2022-08-03T13:29:27.515Z,25.62
2022-08-03T13:31:54.790Z,25.67
2022-08-03T13:34:23.875Z,25.80
2022-08-03T13:37:10.448Z,25.82
2022-08-03T13:39:48.172Z,25.79
2022-08-03T13:42:25.996Z,25.79
2022-08-03T13:44:53.217Z,25.77
2022-08-03T13:47:20.970Z,25.78
2022-08-03T13:49:54.115Z,25.76
2022-08-03T13:52:28.536Z,25.76
2022-08-03T13:54:55.828Z,25.80
2022-08-03T13:58:02.506Z,25.78
2022-08-03T14:00:10.775Z,25.74
2022-08-03T14:02:38.469Z,25.76
2022-08-03T14:05:06.085Z,25.79
2022-08-03T14:07:33.198Z,25.84
2022-08-03T14:10:01.983Z,25.89
2022-08-03T14:12:29.427Z,25.85
2022-08-03T14:14:59.592Z,25.79
2022-08-03T14:17:32.642Z,25.73
2022-08-03T14:20:36.684Z,25.79
2022-08-03T14:22:57.876Z,25.85
2022-08-03T14:25:25.279Z,25.87
2022-08-03T14:27:52.603Z,25.85
2022-08-03T14:30:20.009Z,25.82
2022-08-03T14:32:47.185Z,25.81
2022-08-03T14:35:14.294Z,25.81
2022-08-03T14:37:41.423Z,25.77
2022-08-03T14:40:09.365Z,25.80
2022-08-03T14:42:36.503Z,25.83
2022-08-03T14:45:09.013Z,25.80
2022-08-03T14:50:10.462Z,25.82
2022-08-03T14:50:32.519Z,25.81
2022-08-03T14:53:06.487Z,25.91
2022-08-03T14:55:38.937Z,25.98
2022-08-03T14:58:20.784Z,26.07
2022-08-03T15:00:50.012Z,26.10
2022-08-03T15:03:20.699Z,26.19
2022-08-03T15:05:48.013Z,26.24
2022-08-03T15:08:15.152Z,26.27
2022-08-03T15:10:44.518Z,26.28
2022-08-03T15:13:13.395Z,26.27
2022-08-03T15:15:40.897Z,26.27
2022-08-03T15:18:08.557Z,26.23
2022-08-03T15:20:44.314Z,26.17
2022-08-03T15:23:13.418Z,26.12
2022-08-03T15:26:29.292Z,26.15
2022-08-03T15:28:27.694Z,26.09
2022-08-03T15:30:55.259Z,26.11
2022-08-03T15:33:22.407Z,25.99
2022-08-03T15:35:50.203Z,25.83
2022-08-03T15:38:17.692Z,25.74
2022-08-03T15:40:45.144Z,25.70
2022-08-03T15:43:12.339Z,25.66
2022-08-03T15:45:41.977Z,25.68
2022-08-03T15:48:09.405Z,25.65
2022-08-03T15:50:36.776Z,25.63
2022-08-03T15:53:05.138Z,25.63
2022-08-03T15:55:32.531Z,25.68
2022-08-03T15:59:03.989Z,25.80
2022-08-03T16:00:47.218Z,25.83
2022-08-03T16:03:14.337Z,25.81
2022-08-03T16:05:41.446Z,25.80
2022-08-03T16:08:13.520Z,25.82
2022-08-03T16:10:41.201Z,25.83
2022-08-03T16:13:08.918Z,25.75
2022-08-03T16:15:38.474Z,25.66
2022-08-03T16:18:09.263Z,25.57
2022-08-03T16:20:36.657Z,25.52
2022-08-03T16:23:10.463Z,25.49
2022-08-03T16:25:42.632Z,25.47
2022-08-03T16:28:14.242Z,25.44
2022-08-03T16:30:43.661Z,25.42
2022-08-03T16:33:16.716Z,25.40
2022-08-03T16:35:45.886Z,25.40
2022-08-03T16:38:18.212Z,25.44
2022-08-03T16:40:47.413Z,25.46
2022-08-03T16:43:18.957Z,25.43
2022-08-03T16:45:47.424Z,25.35
2022-08-03T16:48:15.699Z,25.30
2022-08-03T16:50:42.981Z,25.29
2022-08-03T16:53:16.396Z,25.34
2022-08-03T16:55:53.817Z,25.40
2022-08-03T16:58:24.317Z,25.41
2022-08-03T17:01:01.587Z,25.41
2022-08-03T17:03:42.713Z,25.40
2022-08-03T17:06:25.794Z,25.44
2022-08-03T17:09:01.099Z,25.51
2022-08-03T17:11:28.311Z,25.52
2022-08-03T17:13:57.139Z,25.49
2022-08-03T17:16:25.949Z,25.43
2022-08-03T17:18:57.781Z,25.41
2022-08-03T17:21:32.410Z,25.43
2022-08-03T17:24:42.233Z,25.41
2022-08-03T17:28:41.707Z,25.42
2022-08-03T17:30:07.777Z,25.37
2022-08-03T17:32:42.460Z,25.37
2022-08-03T17:35:10.777Z,25.35
2022-08-03T17:37:57.915Z,25.35
2022-08-03T17:40:25.697Z,25.41
2022-08-03T17:42:53.249Z,25.45
2022-08-03T17:45:20.726Z,25.45
2022-08-03T17:47:57.865Z,25.40
2022-08-03T17:50:33.677Z,25.29
2022-08-03T17:53:15.355Z,25.22
2022-08-03T17:56:42.452Z,25.26
2022-08-03T17:59:51.858Z,25.31
2022-08-03T18:03:04.844Z,25.34
2022-08-03T18:06:11.371Z,25.36
2022-08-03T18:08:26.789Z,25.38
2022-08-03T18:11:09.812Z,25.35
2022-08-03T18:13:58.705Z,25.41
2022-08-03T18:16:35.057Z,25.44
2022-08-03T18:19:09.487Z,25.47
2022-08-03T18:22:03.186Z,25.49
2022-08-03T18:24:31.305Z,25.45
2022-08-03T18:27:00.120Z,25.45
2022-08-03T18:29:31.130Z,25.39
2022-08-03T18:32:04.003Z,25.37
2022-08-03T18:34:34.748Z,25.35
2022-08-03T18:37:07.195Z,25.33
2022-08-03T18:39:49.388Z,25.32
2022-08-03T18:42:19.479Z,25.33
2022-08-03T18:44:54.181Z,25.31
2022-08-03T18:47:51.673Z,25.32
2022-08-03T18:50:34.895Z,25.35
2022-08-03T18:53:15.799Z,25.41
2022-08-03T18:56:15.864Z,25.50
2022-08-03T18:59:02.770Z,25.47
2022-08-03T19:02:00.573Z,25.59
2022-08-03T19:04:44.657Z,25.76
2022-08-03T19:07:17.534Z,25.78
2022-08-03T19:09:54.838Z,25.74
2022-08-03T19:12:37.397Z,25.70
2022-08-03T19:15:10.360Z,25.64
2022-08-03T19:17:50.040Z,25.62
2022-08-03T19:20:22.820Z,25.55
2022-08-03T19:22:53.786Z,25.48
2022-08-03T19:25:34.349Z,25.35
2022-08-03T19:28:06.265Z,25.20
2022-08-03T19:30:40.516Z,25.01
2022-08-03T19:33:09.370Z,24.93
2022-08-03T19:35:55.244Z,24.84
2022-08-03T19:38:29.185Z,24.67
2022-08-03T19:41:03.520Z,24.62
2022-08-03T19:43:53.118Z,24.57
2022-08-03T19:46:30.678Z,24.48
2022-08-03T19:49:10.324Z,24.44
2022-08-03T19:51:58.294Z,24.38
2022-08-03T19:54:39.644Z,24.33
2022-08-03T19:57:25.590Z,24.30
2022-08-03T19:59:56.437Z,24.27
2022-08-03T20:02:26.481Z,24.25
2022-08-03T20:04:56.992Z,24.20
2022-08-03T20:07:25.983Z,24.18
2022-08-03T20:09:56.500Z,24.16
2022-08-03T20:12:27.478Z,24.15
2022-08-03T20:14:58.808Z,24.13
2022-08-03T20:17:54.631Z,24.05
2022-08-03T20:20:14.188Z,24.00
2022-08-03T20:22:45.523Z,23.98
2022-08-03T20:25:20.855Z,23.87
2022-08-03T20:28:07.309Z,23.83
2022-08-03T20:30:43.783Z,23.80
2022-08-03T20:33:11.460Z,23.81
2022-08-03T20:35:45.734Z,23.79
2022-08-03T20:38:13.176Z,23.80
2022-08-03T20:40:40.360Z,23.76
2022-08-03T20:43:09.620Z,23.72
2022-08-03T20:46:00.946Z,23.71
2022-08-03T20:48:26.967Z,23.68
2022-08-03T20:50:56.933Z,23.68
2022-08-03T20:53:56.764Z,23.71
2022-08-03T20:56:14.551Z,23.74
2022-08-03T20:58:42.823Z,23.77
2022-08-03T21:01:27.715Z,23.75
2022-08-03T21:04:09.375Z,23.72
2022-08-03T21:06:42.264Z,23.68
2022-08-03T21:09:19.139Z,23.68
2022-08-03T21:11:52.705Z,23.69
2022-08-03T21:14:25.817Z,23.75
2022-08-03T21:16:53.975Z,23.78
2022-08-03T21:19:23.256Z,23.83
2022-08-03T21:21:50.956Z,23.88
2022-08-03T21:24:20.135Z,23.91
2022-08-03T21:26:49.691Z,23.92
2022-08-03T21:29:17.662Z,23.91
2022-08-03T21:31:45.158Z,23.91
2022-08-03T21:34:12.338Z,23.93
2022-08-03T21:36:39.780Z,23.93
2022-08-03T21:39:09.242Z,23.97
2022-08-03T21:41:38.086Z,23.96
2022-08-03T21:44:06.741Z,23.94
2022-08-03T21:46:37.262Z,23.94
2022-08-03T21:50:04.834Z,23.97
2022-08-03T21:52:03.247Z,24.00
2022-08-03T21:54:37.635Z,24.04
2022-08-03T21:57:09.245Z,24.02
2022-08-03T21:59:38.438Z,23.99
2022-08-03T22:02:22.808Z,24.04
2022-08-03T22:04:56.281Z,24.05
2022-08-03T22:07:27.274Z,24.07
2022-08-03T22:09:58.874Z,24.05
2022-08-03T22:12:28.234Z,24.10
2022-08-03T22:15:01.144Z,24.15
2022-08-03T22:17:53.848Z,24.13
2022-08-03T22:20:21.233Z,24.11
2022-08-03T22:22:53.552Z,24.11
2022-08-03T22:25:29.217Z,24.13
2022-08-03T22:27:59.335Z,24.13
2022-08-03T22:30:26.675Z,24.12
2022-08-03T22:32:56.686Z,24.15
2022-08-03T22:35:26.307Z,24.16
2022-08-03T22:37:55.929Z,24.11
2022-08-03T22:40:23.175Z,24.04
2022-08-03T22:42:52.110Z,24.03
2022-08-03T22:46:07.242Z,24.08
2022-08-03T22:48:08.664Z,24.09
2022-08-03T22:50:36.089Z,24.05
2022-08-03T22:53:03.713Z,24.02
2022-08-03T22:55:31.865Z,24.00
2022-08-03T22:57:58.962Z,24.00
2022-08-03T23:00:26.199Z,24.01
2022-08-03T23:02:55.504Z,23.99
2022-08-03T23:06:00.914Z,23.95
2022-08-03T23:08:23.307Z,23.91
2022-08-03T23:10:51.399Z,23.82
2022-08-03T23:13:19.553Z,23.80
2022-08-03T23:15:56.892Z,23.82
2022-08-03T23:18:25.301Z,23.82
2022-08-03T23:20:53.857Z,23.80
2022-08-03T23:23:23.253Z,23.81
2022-08-03T23:25:51.983Z,23.79
2022-08-03T23:28:19.622Z,23.71
2022-08-03T23:30:49.275Z,23.66
2022-08-03T23:33:18.769Z,23.70
2022-08-03T23:36:29.773Z,23.72
2022-08-03T23:38:46.390Z,23.74
2022-08-03T23:41:14.463Z,23.71
2022-08-03T23:43:52.127Z,23.68
2022-08-03T23:46:22.770Z,23.68
2022-08-03T23:48:51.175Z,23.70
2022-08-03T23:51:53.560Z,23.69
2022-08-03T23:54:35.619Z,23.65
2022-08-03T23:57:33.210Z,23.67
